Terminal Aerodrome Forecast
Issued by NWS Knoxville/Tri Cities, TN

Home | Current Version | Previous Version | Text Only | Print | Product List | Glossary On
Versions: 1 2 3 4 5 6 7 8 9 10 11 12 13 14 15 16 17 18 19 20 21 22 23 24 25 26 27 28 29
000
FTUS44 KMRX 051120
TAFCHA
TAF
KCHA 051120Z 0512/0612 01005KT 5SM BR FEW040
     FM051300 05006KT P6SM FEW040
     FM051900 10006KT P6SM VCTS SCT050CB
     FM060000 VRB03KT P6SM SCT150=

USA.gov is the U.S. government's official web portal to all federal, state and local government web resources and services.